sensor_id;sensor_type;location;lat;lon;timestamp;P1;durP1;ratioP1;P2;durP2;ratioP2
21301;SDS011;10810;48.270;9.996;2022-07-18T00:01:03;2.20;;;1.90;;
21301;SDS011;10810;48.270;9.996;2022-07-18T00:03:30;2.67;;;1.98;;
21301;SDS011;10810;48.270;9.996;2022-07-18T00:05:58;3.65;;;2.40;;
21301;SDS011;10810;48.270;9.996;2022-07-18T00:08:25;2.60;;;1.88;;
21301;SDS011;10810;48.270;9.996;2022-07-18T00:10:53;2.42;;;1.77;;
21301;SDS011;10810;48.270;9.996;2022-07-18T00:13:20;3.40;;;2.30;;
21301;SDS011;10810;48.270;9.996;2022-07-18T00:15:47;4.05;;;2.00;;
21301;SDS011;10810;48.270;9.996;2022-07-18T00:18:15;3.85;;;2.30;;
21301;SDS011;10810;48.270;9.996;2022-07-18T00:20:42;3.00;;;2.20;;
21301;SDS011;10810;48.270;9.996;2022-07-18T00:23:09;3.25;;;2.28;;
21301;SDS011;10810;48.270;9.996;2022-07-18T00:25:36;2.97;;;2.00;;
21301;SDS011;10810;48.270;9.996;2022-07-18T00:28:05;4.00;;;2.20;;
21301;SDS011;10810;48.270;9.996;2022-07-18T00:30:34;4.03;;;2.17;;
21301;SDS011;10810;48.270;9.996;2022-07-18T00:33:01;3.45;;;2.20;;
21301;SDS011;10810;48.270;9.996;2022-07-18T00:35:30;3.33;;;2.10;;
21301;SDS011;10810;48.270;9.996;2022-07-18T00:37:57;3.20;;;1.97;;
21301;SDS011;10810;48.270;9.996;2022-07-18T00:40:24;4.15;;;2.17;;
21301;SDS011;10810;48.270;9.996;2022-07-18T00:42:51;6.20;;;2.20;;
21301;SDS011;10810;48.270;9.996;2022-07-18T00:45:19;3.00;;;1.90;;
21301;SDS011;10810;48.270;9.996;2022-07-18T00:47:47;3.00;;;2.20;;
21301;SDS011;10810;48.270;9.996;2022-07-18T00:50:16;3.22;;;2.20;;
21301;SDS011;10810;48.270;9.996;2022-07-18T00:52:44;3.37;;;2.13;;
21301;SDS011;10810;48.270;9.996;2022-07-18T00:55:11;3.80;;;2.13;;
21301;SDS011;10810;48.270;9.996;2022-07-18T00:57:39;3.20;;;2.07;;
21301;SDS011;10810;48.270;9.996;2022-07-18T01:00:10;4.63;;;2.20;;
21301;SDS011;10810;48.270;9.996;2022-07-18T01:03:11;3.40;;;2.13;;
21301;SDS011;10810;48.270;9.996;2022-07-18T01:05:38;2.70;;;1.90;;
21301;SDS011;10810;48.270;9.996;2022-07-18T01:08:05;3.53;;;2.20;;
21301;SDS011;10810;48.270;9.996;2022-07-18T01:10:32;3.30;;;2.20;;
21301;SDS011;10810;48.270;9.996;2022-07-18T01:12:59;3.38;;;2.25;;
21301;SDS011;10810;48.270;9.996;2022-07-18T01:15:27;3.63;;;2.30;;
21301;SDS011;10810;48.270;9.996;2022-07-18T01:17:54;3.93;;;2.50;;
21301;SDS011;10810;48.270;9.996;2022-07-18T01:22:57;3.93;;;2.17;;
21301;SDS011;10810;48.270;9.996;2022-07-18T01:25:24;3.10;;;2.10;;
21301;SDS011;10810;48.270;9.996;2022-07-18T01:27:52;3.93;;;2.37;;
21301;SDS011;10810;48.270;9.996;2022-07-18T01:30:19;3.63;;;2.07;;
21301;SDS011;10810;48.270;9.996;2022-07-18T01:32:46;4.30;;;2.43;;
21301;SDS011;10810;48.270;9.996;2022-07-18T01:35:21;4.30;;;2.40;;
21301;SDS011;10810;48.270;9.996;2022-07-18T01:37:50;3.37;;;2.10;;
21301;SDS011;10810;48.270;9.996;2022-07-18T01:40:18;3.60;;;2.30;;
21301;SDS011;10810;48.270;9.996;2022-07-18T01:42:45;3.27;;;2.20;;
21301;SDS011;10810;48.270;9.996;2022-07-18T01:45:12;3.53;;;2.23;;
21301;SDS011;10810;48.270;9.996;2022-07-18T01:47:40;2.93;;;2.20;;
21301;SDS011;10810;48.270;9.996;2022-07-18T01:50:08;4.70;;;2.20;;
21301;SDS011;10810;48.270;9.996;2022-07-18T01:52:36;3.27;;;2.07;;
21301;SDS011;10810;48.270;9.996;2022-07-18T01:55:05;4.90;;;2.30;;
21301;SDS011;10810;48.270;9.996;2022-07-18T01:57:34;4.03;;;2.40;;
21301;SDS011;10810;48.270;9.996;2022-07-18T02:00:01;3.27;;;2.10;;
21301;SDS011;10810;48.270;9.996;2022-07-18T02:02:30;4.10;;;2.10;;
21301;SDS011;10810;48.270;9.996;2022-07-18T02:04:57;2.93;;;2.10;;
21301;SDS011;10810;48.270;9.996;2022-07-18T02:07:28;4.13;;;2.67;;
21301;SDS011;10810;48.270;9.996;2022-07-18T02:09:57;2.90;;;2.20;;
21301;SDS011;10810;48.270;9.996;2022-07-18T02:12:26;4.47;;;2.30;;
21301;SDS011;10810;48.270;9.996;2022-07-18T02:14:54;3.43;;;2.10;;
21301;SDS011;10810;48.270;9.996;2022-07-18T02:17:21;4.00;;;2.53;;
21301;SDS011;10810;48.270;9.996;2022-07-18T02:19:48;3.60;;;2.17;;
21301;SDS011;10810;48.270;9.996;2022-07-18T02:22:15;5.10;;;2.50;;
21301;SDS011;10810;48.270;9.996;2022-07-18T02:24:42;3.40;;;2.30;;
21301;SDS011;10810;48.270;9.996;2022-07-18T02:27:09;3.90;;;2.40;;
21301;SDS011;10810;48.270;9.996;2022-07-18T02:29:38;3.57;;;2.30;;
21301;SDS011;10810;48.270;9.996;2022-07-18T02:32:05;3.17;;;2.30;;
21301;SDS011;10810;48.270;9.996;2022-07-18T02:34:33;6.73;;;2.33;;
21301;SDS011;10810;48.270;9.996;2022-07-18T02:37:00;3.90;;;2.27;;
21301;SDS011;10810;48.270;9.996;2022-07-18T02:39:27;4.50;;;2.43;;
21301;SDS011;10810;48.270;9.996;2022-07-18T02:41:54;3.53;;;2.20;;
21301;SDS011;10810;48.270;9.996;2022-07-18T02:44:22;3.30;;;2.10;;
21301;SDS011;10810;48.270;9.996;2022-07-18T02:46:50;3.77;;;2.23;;
21301;SDS011;10810;48.270;9.996;2022-07-18T02:49:18;3.03;;;2.20;;
21301;SDS011;10810;48.270;9.996;2022-07-18T02:51:55;3.83;;;2.50;;
21301;SDS011;10810;48.270;9.996;2022-07-18T02:54:22;5.47;;;2.70;;
21301;SDS011;10810;48.270;9.996;2022-07-18T02:56:50;3.83;;;2.20;;
21301;SDS011;10810;48.270;9.996;2022-07-18T02:59:18;4.73;;;2.20;;
21301;SDS011;10810;48.270;9.996;2022-07-18T03:01:45;3.67;;;2.33;;
21301;SDS011;10810;48.270;9.996;2022-07-18T03:04:15;3.10;;;2.20;;
21301;SDS011;10810;48.270;9.996;2022-07-18T03:06:43;3.07;;;2.20;;
21301;SDS011;10810;48.270;9.996;2022-07-18T03:09:10;4.73;;;2.13;;
21301;SDS011;10810;48.270;9.996;2022-07-18T03:11:37;3.20;;;2.10;;
21301;SDS011;10810;48.270;9.996;2022-07-18T03:14:04;3.77;;;2.20;;
21301;SDS011;10810;48.270;9.996;2022-07-18T03:16:31;4.27;;;2.27;;
21301;SDS011;10810;48.270;9.996;2022-07-18T03:19:00;3.13;;;2.30;;
21301;SDS011;10810;48.270;9.996;2022-07-18T03:21:33;4.60;;;2.30;;
21301;SDS011;10810;48.270;9.996;2022-07-18T03:24:01;3.53;;;2.10;;
21301;SDS011;10810;48.270;9.996;2022-07-18T03:26:29;4.07;;;2.40;;
21301;SDS011;10810;48.270;9.996;2022-07-18T03:28:56;4.10;;;2.40;;
21301;SDS011;10810;48.270;9.996;2022-07-18T03:31:23;3.70;;;2.27;;
21301;SDS011;10810;48.270;9.996;2022-07-18T03:33:50;3.90;;;2.30;;
21301;SDS011;10810;48.270;9.996;2022-07-18T03:36:17;3.43;;;2.40;;
21301;SDS011;10810;48.270;9.996;2022-07-18T03:38:45;4.13;;;2.63;;
21301;SDS011;10810;48.270;9.996;2022-07-18T03:41:12;4.00;;;2.10;;
21301;SDS011;10810;48.270;9.996;2022-07-18T03:43:39;3.47;;;2.10;;
21301;SDS011;10810;48.270;9.996;2022-07-18T03:46:07;3.77;;;2.13;;
21301;SDS011;10810;48.270;9.996;2022-07-18T03:48:35;3.50;;;2.27;;
21301;SDS011;10810;48.270;9.996;2022-07-18T03:51:02;5.13;;;2.70;;
21301;SDS011;10810;48.270;9.996;2022-07-18T03:53:30;3.83;;;2.43;;
21301;SDS011;10810;48.270;9.996;2022-07-18T03:55:59;3.57;;;2.27;;
21301;SDS011;10810;48.270;9.996;2022-07-18T03:58:26;4.43;;;2.40;;
21301;SDS011;10810;48.270;9.996;2022-07-18T04:00:53;3.27;;;2.33;;
21301;SDS011;10810;48.270;9.996;2022-07-18T04:03:20;4.27;;;2.00;;
21301;SDS011;10810;48.270;9.996;2022-07-18T04:05:47;4.10;;;2.20;;
21301;SDS011;10810;48.270;9.996;2022-07-18T04:08:14;3.53;;;2.10;;
21301;SDS011;10810;48.270;9.996;2022-07-18T04:10:42;4.33;;;2.10;;
21301;SDS011;10810;48.270;9.996;2022-07-18T04:13:10;3.10;;;1.97;;
21301;SDS011;10810;48.270;9.996;2022-07-18T04:15:38;3.57;;;2.20;;
21301;SDS011;10810;48.270;9.996;2022-07-18T04:18:05;3.80;;;2.23;;
21301;SDS011;10810;48.270;9.996;2022-07-18T04:20:33;4.20;;;2.47;;
21301;SDS011;10810;48.270;9.996;2022-07-18T04:23:01;3.50;;;2.10;;
21301;SDS011;10810;48.270;9.996;2022-07-18T04:25:33;5.70;;;2.37;;
21301;SDS011;10810;48.270;9.996;2022-07-18T04:28:02;4.37;;;2.40;;
21301;SDS011;10810;48.270;9.996;2022-07-18T04:30:31;3.20;;;1.97;;
21301;SDS011;10810;48.270;9.996;2022-07-18T04:33:00;3.73;;;2.30;;
21301;SDS011;10810;48.270;9.996;2022-07-18T04:35:29;3.93;;;2.23;;
21301;SDS011;10810;48.270;9.996;2022-07-18T04:37:57;4.27;;;2.50;;
21301;SDS011;10810;48.270;9.996;2022-07-18T04:40:25;3.90;;;2.33;;
21301;SDS011;10810;48.270;9.996;2022-07-18T04:42:52;3.80;;;2.40;;
21301;SDS011;10810;48.270;9.996;2022-07-18T04:45:19;4.23;;;2.50;;
21301;SDS011;10810;48.270;9.996;2022-07-18T04:47:49;4.63;;;2.30;;
21301;SDS011;10810;48.270;9.996;2022-07-18T04:50:17;4.10;;;2.17;;
21301;SDS011;10810;48.270;9.996;2022-07-18T04:52:47;4.10;;;2.40;;
21301;SDS011;10810;48.270;9.996;2022-07-18T04:55:16;3.13;;;2.10;;
21301;SDS011;10810;48.270;9.996;2022-07-18T04:57:44;3.97;;;2.37;;
21301;SDS011;10810;48.270;9.996;2022-07-18T05:00:12;3.47;;;2.30;;
21301;SDS011;10810;48.270;9.996;2022-07-18T05:02:41;3.80;;;2.20;;
21301;SDS011;10810;48.270;9.996;2022-07-18T05:05:11;2.90;;;1.97;;
21301;SDS011;10810;48.270;9.996;2022-07-18T05:07:40;3.70;;;2.07;;
21301;SDS011;10810;48.270;9.996;2022-07-18T05:10:09;3.73;;;2.40;;
21301;SDS011;10810;48.270;9.996;2022-07-18T05:12:37;3.40;;;2.30;;
21301;SDS011;10810;48.270;9.996;2022-07-18T05:15:06;3.43;;;2.10;;
21301;SDS011;10810;48.270;9.996;2022-07-18T05:17:36;4.83;;;2.53;;
21301;SDS011;10810;48.270;9.996;2022-07-18T05:20:05;3.43;;;2.20;;
21301;SDS011;10810;48.270;9.996;2022-07-18T05:22:35;3.13;;;2.40;;
21301;SDS011;10810;48.270;9.996;2022-07-18T05:25:03;3.27;;;2.20;;
21301;SDS011;10810;48.270;9.996;2022-07-18T05:27:31;3.07;;;2.00;;
21301;SDS011;10810;48.270;9.996;2022-07-18T05:29:59;3.57;;;2.30;;
21301;SDS011;10810;48.270;9.996;2022-07-18T05:32:26;3.13;;;2.30;;
21301;SDS011;10810;48.270;9.996;2022-07-18T05:34:56;4.67;;;2.30;;
21301;SDS011;10810;48.270;9.996;2022-07-18T05:37:24;3.27;;;2.23;;
21301;SDS011;10810;48.270;9.996;2022-07-18T05:39:52;3.50;;;2.30;;
21301;SDS011;10810;48.270;9.996;2022-07-18T05:42:20;3.50;;;2.20;;
21301;SDS011;10810;48.270;9.996;2022-07-18T05:44:47;3.83;;;2.30;;
21301;SDS011;10810;48.270;9.996;2022-07-18T05:47:14;3.33;;;2.17;;
21301;SDS011;10810;48.270;9.996;2022-07-18T05:49:41;3.43;;;2.20;;
21301;SDS011;10810;48.270;9.996;2022-07-18T05:52:09;4.60;;;2.60;;
21301;SDS011;10810;48.270;9.996;2022-07-18T05:54:36;4.03;;;2.50;;
21301;SDS011;10810;48.270;9.996;2022-07-18T05:57:05;4.13;;;2.50;;
21301;SDS011;10810;48.270;9.996;2022-07-18T05:59:32;4.87;;;2.63;;
21301;SDS011;10810;48.270;9.996;2022-07-18T06:01:59;4.40;;;2.60;;
21301;SDS011;10810;48.270;9.996;2022-07-18T06:04:29;5.10;;;2.90;;
21301;SDS011;10810;48.270;9.996;2022-07-18T06:06:57;3.70;;;2.40;;
21301;SDS011;10810;48.270;9.996;2022-07-18T06:09:24;4.23;;;2.73;;
21301;SDS011;10810;48.270;9.996;2022-07-18T06:11:55;3.70;;;2.33;;
21301;SDS011;10810;48.270;9.996;2022-07-18T06:14:25;3.83;;;2.10;;
21301;SDS011;10810;48.270;9.996;2022-07-18T06:16:58;3.87;;;2.20;;
21301;SDS011;10810;48.270;9.996;2022-07-18T06:19:28;4.10;;;2.40;;
21301;SDS011;10810;48.270;9.996;2022-07-18T06:21:55;5.10;;;2.50;;
21301;SDS011;10810;48.270;9.996;2022-07-18T06:24:22;3.23;;;2.00;;
21301;SDS011;10810;48.270;9.996;2022-07-18T06:26:49;4.43;;;2.50;;
21301;SDS011;10810;48.270;9.996;2022-07-18T06:29:16;3.47;;;2.10;;
21301;SDS011;10810;48.270;9.996;2022-07-18T06:31:45;3.70;;;2.30;;
21301;SDS011;10810;48.270;9.996;2022-07-18T06:34:12;4.67;;;2.13;;
21301;SDS011;10810;48.270;9.996;2022-07-18T06:36:39;4.17;;;2.10;;
21301;SDS011;10810;48.270;9.996;2022-07-18T06:39:06;3.90;;;2.47;;
21301;SDS011;10810;48.270;9.996;2022-07-18T06:41:36;3.57;;;2.13;;
21301;SDS011;10810;48.270;9.996;2022-07-18T06:44:04;5.80;;;2.17;;
21301;SDS011;10810;48.270;9.996;2022-07-18T06:46:31;3.13;;;1.97;;
21301;SDS011;10810;48.270;9.996;2022-07-18T06:49:00;3.10;;;1.90;;
21301;SDS011;10810;48.270;9.996;2022-07-18T06:51:31;5.40;;;2.20;;
21301;SDS011;10810;48.270;9.996;2022-07-18T06:54:02;3.77;;;2.03;;
21301;SDS011;10810;48.270;9.996;2022-07-18T06:56:29;4.20;;;2.00;;
21301;SDS011;10810;48.270;9.996;2022-07-18T06:59:00;2.63;;;2.00;;
21301;SDS011;10810;48.270;9.996;2022-07-18T07:01:28;4.00;;;1.83;;
21301;SDS011;10810;48.270;9.996;2022-07-18T07:03:55;4.20;;;1.97;;
21301;SDS011;10810;48.270;9.996;2022-07-18T07:06:26;2.80;;;1.97;;
21301;SDS011;10810;48.270;9.996;2022-07-18T07:08:53;4.17;;;2.17;;
21301;SDS011;10810;48.270;9.996;2022-07-18T07:11:20;5.00;;;2.13;;
21301;SDS011;10810;48.270;9.996;2022-07-18T07:13:49;2.77;;;2.03;;
21301;SDS011;10810;48.270;9.996;2022-07-18T07:16:16;3.00;;;1.93;;
21301;SDS011;10810;48.270;9.996;2022-07-18T07:18:43;3.20;;;1.83;;
21301;SDS011;10810;48.270;9.996;2022-07-18T07:21:10;3.07;;;2.17;;
21301;SDS011;10810;48.270;9.996;2022-07-18T07:23:39;3.73;;;1.80;;
21301;SDS011;10810;48.270;9.996;2022-07-18T07:26:07;2.33;;;1.70;;
21301;SDS011;10810;48.270;9.996;2022-07-18T07:28:35;4.13;;;2.00;;
21301;SDS011;10810;48.270;9.996;2022-07-18T07:31:07;3.47;;;1.97;;
21301;SDS011;10810;48.270;9.996;2022-07-18T07:33:34;3.20;;;1.93;;
21301;SDS011;10810;48.270;9.996;2022-07-18T07:36:02;4.10;;;2.38;;
21301;SDS011;10810;48.270;9.996;2022-07-18T07:38:33;2.60;;;1.80;;
21301;SDS011;10810;48.270;9.996;2022-07-18T07:41:03;4.13;;;2.30;;
21301;SDS011;10810;48.270;9.996;2022-07-18T07:43:32;3.03;;;2.00;;
21301;SDS011;10810;48.270;9.996;2022-07-18T07:46:01;3.63;;;1.90;;
21301;SDS011;10810;48.270;9.996;2022-07-18T07:48:30;5.40;;;2.10;;
21301;SDS011;10810;48.270;9.996;2022-07-18T07:50:58;3.50;;;2.00;;
21301;SDS011;10810;48.270;9.996;2022-07-18T07:53:28;3.65;;;2.20;;
21301;SDS011;10810;48.270;9.996;2022-07-18T07:56:01;4.50;;;2.30;;
21301;SDS011;10810;48.270;9.996;2022-07-18T07:58:36;3.50;;;1.98;;
21301;SDS011;10810;48.270;9.996;2022-07-18T08:01:12;3.83;;;2.20;;
21301;SDS011;10810;48.270;9.996;2022-07-18T08:03:41;3.27;;;1.90;;
21301;SDS011;10810;48.270;9.996;2022-07-18T08:06:09;3.30;;;1.87;;
21301;SDS011;10810;48.270;9.996;2022-07-18T08:08:37;3.67;;;1.92;;
21301;SDS011;10810;48.270;9.996;2022-07-18T08:11:08;4.65;;;2.38;;
21301;SDS011;10810;48.270;9.996;2022-07-18T08:13:35;2.73;;;1.80;;
21301;SDS011;10810;48.270;9.996;2022-07-18T08:16:04;3.95;;;1.90;;
21301;SDS011;10810;48.270;9.996;2022-07-18T08:18:31;3.75;;;2.20;;
21301;SDS011;10810;48.270;9.996;2022-07-18T08:21:05;4.00;;;2.30;;
21301;SDS011;10810;48.270;9.996;2022-07-18T08:23:37;3.65;;;2.15;;
21301;SDS011;10810;48.270;9.996;2022-07-18T08:26:07;2.72;;;1.88;;
21301;SDS011;10810;48.270;9.996;2022-07-18T08:28:50;4.95;;;2.00;;
21301;SDS011;10810;48.270;9.996;2022-07-18T08:31:25;3.83;;;1.95;;
21301;SDS011;10810;48.270;9.996;2022-07-18T08:34:16;2.90;;;2.05;;
21301;SDS011;10810;48.270;9.996;2022-07-18T08:36:58;3.50;;;2.20;;
21301;SDS011;10810;48.270;9.996;2022-07-18T08:39:33;3.50;;;1.88;;
21301;SDS011;10810;48.270;9.996;2022-07-18T08:42:03;3.20;;;1.90;;
21301;SDS011;10810;48.270;9.996;2022-07-18T08:44:34;5.00;;;1.80;;
21301;SDS011;10810;48.270;9.996;2022-07-18T08:47:05;4.40;;;1.77;;
21301;SDS011;10810;48.270;9.996;2022-07-18T08:49:35;4.20;;;1.90;;
21301;SDS011;10810;48.270;9.996;2022-07-18T08:52:11;3.95;;;1.98;;
21301;SDS011;10810;48.270;9.996;2022-07-18T08:54:42;2.88;;;1.92;;
21301;SDS011;10810;48.270;9.996;2022-07-18T08:57:19;2.55;;;1.70;;
21301;SDS011;10810;48.270;9.996;2022-07-18T08:59:46;3.67;;;1.90;;
21301;SDS011;10810;48.270;9.996;2022-07-18T09:02:29;2.88;;;1.70;;
21301;SDS011;10810;48.270;9.996;2022-07-18T09:05:03;4.03;;;1.70;;
21301;SDS011;10810;48.270;9.996;2022-07-18T09:07:54;3.38;;;1.65;;
21301;SDS011;10810;48.270;9.996;2022-07-18T09:10:39;2.70;;;1.70;;
21301;SDS011;10810;48.270;9.996;2022-07-18T09:13:09;4.15;;;1.80;;
21301;SDS011;10810;48.270;9.996;2022-07-18T09:18:30;3.17;;;1.75;;
21301;SDS011;10810;48.270;9.996;2022-07-18T09:21:13;2.35;;;1.58;;
21301;SDS011;10810;48.270;9.996;2022-07-18T09:23:44;3.47;;;1.65;;
21301;SDS011;10810;48.270;9.996;2022-07-18T09:26:33;2.08;;;1.63;;
21301;SDS011;10810;48.270;9.996;2022-07-18T09:29:05;2.58;;;1.58;;
21301;SDS011;10810;48.270;9.996;2022-07-18T09:31:37;4.53;;;1.65;;
21301;SDS011;10810;48.270;9.996;2022-07-18T09:34:04;2.92;;;1.58;;
21301;SDS011;10810;48.270;9.996;2022-07-18T09:36:36;3.80;;;1.58;;
21301;SDS011;10810;48.270;9.996;2022-07-18T09:39:22;2.10;;;1.48;;
21301;SDS011;10810;48.270;9.996;2022-07-18T09:42:01;2.20;;;1.50;;
21301;SDS011;10810;48.270;9.996;2022-07-18T09:47:39;2.53;;;1.50;;
21301;SDS011;10810;48.270;9.996;2022-07-18T09:50:20;2.28;;;1.38;;
21301;SDS011;10810;48.270;9.996;2022-07-18T09:53:09;2.05;;;1.38;;
21301;SDS011;10810;48.270;9.996;2022-07-18T09:55:50;3.00;;;1.50;;
21301;SDS011;10810;48.270;9.996;2022-07-18T09:58:21;2.55;;;1.50;;
21301;SDS011;10810;48.270;9.996;2022-07-18T10:01:13;3.72;;;1.48;;
21301;SDS011;10810;48.270;9.996;2022-07-18T10:03:47;2.38;;;1.50;;
21301;SDS011;10810;48.270;9.996;2022-07-18T10:06:15;4.18;;;1.63;;
21301;SDS011;10810;48.270;9.996;2022-07-18T10:08:45;2.10;;;1.30;;
21301;SDS011;10810;48.270;9.996;2022-07-18T10:11:22;2.78;;;1.52;;
21301;SDS011;10810;48.270;9.996;2022-07-18T10:13:54;4.85;;;1.77;;
21301;SDS011;10810;48.270;9.996;2022-07-18T10:16:27;2.80;;;1.63;;
21301;SDS011;10810;48.270;9.996;2022-07-18T10:19:10;2.05;;;1.40;;
21301;SDS011;10810;48.270;9.996;2022-07-18T10:21:39;1.98;;;1.40;;
21301;SDS011;10810;48.270;9.996;2022-07-18T10:24:08;3.00;;;1.58;;
21301;SDS011;10810;48.270;9.996;2022-07-18T10:32:35;2.67;;;1.52;;
21301;SDS011;10810;48.270;9.996;2022-07-18T10:35:03;2.60;;;1.60;;
21301;SDS011;10810;48.270;9.996;2022-07-18T10:37:31;1.95;;;1.45;;
21301;SDS011;10810;48.270;9.996;2022-07-18T10:40:08;2.50;;;1.70;;
21301;SDS011;10810;48.270;9.996;2022-07-18T10:42:52;2.20;;;1.30;;
21301;SDS011;10810;48.270;9.996;2022-07-18T10:45:57;2.08;;;1.30;;
21301;SDS011;10810;48.270;9.996;2022-07-18T10:51:19;3.50;;;1.50;;
21301;SDS011;10810;48.270;9.996;2022-07-18T10:59:59;2.20;;;1.70;;
21301;SDS011;10810;48.270;9.996;2022-07-18T11:02:31;1.88;;;1.40;;
21301;SDS011;10810;48.270;9.996;2022-07-18T11:05:02;1.90;;;1.40;;
21301;SDS011;10810;48.270;9.996;2022-07-18T11:11:04;2.55;;;1.60;;
21301;SDS011;10810;48.270;9.996;2022-07-18T11:13:37;2.55;;;1.45;;
21301;SDS011;10810;48.270;9.996;2022-07-18T11:16:09;2.67;;;1.70;;
21301;SDS011;10810;48.270;9.996;2022-07-18T11:21:58;1.77;;;1.40;;
21301;SDS011;10810;48.270;9.996;2022-07-18T11:24:25;2.08;;;1.33;;
21301;SDS011;10810;48.270;9.996;2022-07-18T11:26:53;2.45;;;1.40;;
21301;SDS011;10810;48.270;9.996;2022-07-18T11:29:20;2.55;;;1.60;;
21301;SDS011;10810;48.270;9.996;2022-07-18T11:31:48;3.92;;;1.80;;
21301;SDS011;10810;48.270;9.996;2022-07-18T11:34:17;2.03;;;1.35;;
21301;SDS011;10810;48.270;9.996;2022-07-18T11:36:45;2.35;;;1.25;;
21301;SDS011;10810;48.270;9.996;2022-07-18T11:39:26;2.17;;;1.40;;
21301;SDS011;10810;48.270;9.996;2022-07-18T11:41:55;1.45;;;1.30;;
21301;SDS011;10810;48.270;9.996;2022-07-18T11:44:22;2.15;;;1.50;;
21301;SDS011;10810;48.270;9.996;2022-07-18T11:47:03;2.58;;;1.60;;
21301;SDS011;10810;48.270;9.996;2022-07-18T11:49:31;2.75;;;1.65;;
21301;SDS011;10810;48.270;9.996;2022-07-18T11:51:59;2.67;;;1.60;;
21301;SDS011;10810;48.270;9.996;2022-07-18T11:54:28;2.90;;;1.65;;
21301;SDS011;10810;48.270;9.996;2022-07-18T11:56:57;2.47;;;1.60;;
21301;SDS011;10810;48.270;9.996;2022-07-18T11:59:36;2.60;;;1.70;;
21301;SDS011;10810;48.270;9.996;2022-07-18T12:02:12;1.55;;;1.13;;
21301;SDS011;10810;48.270;9.996;2022-07-18T12:04:45;1.95;;;1.50;;
21301;SDS011;10810;48.270;9.996;2022-07-18T12:07:20;3.13;;;1.60;;
21301;SDS011;10810;48.270;9.996;2022-07-18T12:09:54;2.53;;;1.58;;
21301;SDS011;10810;48.270;9.996;2022-07-18T12:12:22;2.15;;;1.40;;
21301;SDS011;10810;48.270;9.996;2022-07-18T12:14:53;2.65;;;1.60;;
21301;SDS011;10810;48.270;9.996;2022-07-18T12:17:24;2.55;;;1.65;;
21301;SDS011;10810;48.270;9.996;2022-07-18T12:19:52;1.55;;;1.30;;
21301;SDS011;10810;48.270;9.996;2022-07-18T12:22:35;2.30;;;1.70;;
21301;SDS011;10810;48.270;9.996;2022-07-18T12:25:05;1.52;;;1.33;;
21301;SDS011;10810;48.270;9.996;2022-07-18T12:27:35;2.05;;;1.52;;
21301;SDS011;10810;48.270;9.996;2022-07-18T12:30:06;1.75;;;1.35;;
21301;SDS011;10810;48.270;9.996;2022-07-18T12:32:37;2.08;;;1.60;;
21301;SDS011;10810;48.270;9.996;2022-07-18T12:35:12;2.67;;;1.50;;
21301;SDS011;10810;48.270;9.996;2022-07-18T12:37:41;1.67;;;1.30;;
21301;SDS011;10810;48.270;9.996;2022-07-18T12:40:19;2.50;;;1.70;;
21301;SDS011;10810;48.270;9.996;2022-07-18T12:42:47;2.78;;;1.45;;
21301;SDS011;10810;48.270;9.996;2022-07-18T12:45:14;2.28;;;1.50;;
21301;SDS011;10810;48.270;9.996;2022-07-18T12:47:42;2.13;;;1.55;;
21301;SDS011;10810;48.270;9.996;2022-07-18T12:50:30;2.45;;;1.75;;
21301;SDS011;10810;48.270;9.996;2022-07-18T12:53:01;1.95;;;1.45;;
21301;SDS011;10810;48.270;9.996;2022-07-18T12:55:36;1.98;;;1.50;;
21301;SDS011;10810;48.270;9.996;2022-07-18T12:58:05;2.15;;;1.50;;
21301;SDS011;10810;48.270;9.996;2022-07-18T13:00:32;2.20;;;1.50;;
21301;SDS011;10810;48.270;9.996;2022-07-18T13:02:59;2.13;;;1.25;;
21301;SDS011;10810;48.270;9.996;2022-07-18T13:05:41;2.38;;;1.30;;
21301;SDS011;10810;48.270;9.996;2022-07-18T13:08:13;1.85;;;1.40;;
21301;SDS011;10810;48.270;9.996;2022-07-18T13:10:41;2.53;;;1.58;;
21301;SDS011;10810;48.270;9.996;2022-07-18T13:13:10;3.17;;;1.40;;
21301;SDS011;10810;48.270;9.996;2022-07-18T13:15:37;2.80;;;1.50;;
21301;SDS011;10810;48.270;9.996;2022-07-18T13:18:11;2.13;;;1.45;;
21301;SDS011;10810;48.270;9.996;2022-07-18T13:20:42;1.75;;;1.40;;
21301;SDS011;10810;48.270;9.996;2022-07-18T13:23:11;2.00;;;1.40;;
21301;SDS011;10810;48.270;9.996;2022-07-18T13:25:41;2.38;;;1.58;;
21301;SDS011;10810;48.270;9.996;2022-07-18T13:28:09;2.08;;;1.33;;
21301;SDS011;10810;48.270;9.996;2022-07-18T13:30:40;1.70;;;1.40;;
21301;SDS011;10810;48.270;9.996;2022-07-18T13:33:07;2.85;;;1.70;;
21301;SDS011;10810;48.270;9.996;2022-07-18T13:35:36;3.60;;;1.55;;
21301;SDS011;10810;48.270;9.996;2022-07-18T13:38:09;3.08;;;1.50;;
21301;SDS011;10810;48.270;9.996;2022-07-18T13:40:36;2.03;;;1.45;;
21301;SDS011;10810;48.270;9.996;2022-07-18T13:43:07;3.40;;;1.50;;
21301;SDS011;10810;48.270;9.996;2022-07-18T13:45:40;2.53;;;1.50;;
21301;SDS011;10810;48.270;9.996;2022-07-18T13:50:40;2.75;;;1.60;;
21301;SDS011;10810;48.270;9.996;2022-07-18T13:53:07;2.70;;;1.63;;
21301;SDS011;10810;48.270;9.996;2022-07-18T13:55:34;2.80;;;1.40;;
21301;SDS011;10810;48.270;9.996;2022-07-18T13:58:01;1.83;;;1.50;;
21301;SDS011;10810;48.270;9.996;2022-07-18T14:00:31;2.92;;;1.60;;
21301;SDS011;10810;48.270;9.996;2022-07-18T14:03:00;1.60;;;1.30;;
21301;SDS011;10810;48.270;9.996;2022-07-18T14:05:29;2.00;;;1.35;;
21301;SDS011;10810;48.270;9.996;2022-07-18T14:08:11;2.42;;;1.45;;
21301;SDS011;10810;48.270;9.996;2022-07-18T14:10:40;1.58;;;1.30;;
21301;SDS011;10810;48.270;9.996;2022-07-18T14:13:09;2.10;;;1.35;;
21301;SDS011;10810;48.270;9.996;2022-07-18T14:15:40;2.45;;;1.50;;
21301;SDS011;10810;48.270;9.996;2022-07-18T14:18:13;1.95;;;1.33;;
21301;SDS011;10810;48.270;9.996;2022-07-18T14:20:42;1.70;;;1.35;;
21301;SDS011;10810;48.270;9.996;2022-07-18T14:23:11;2.00;;;1.48;;
21301;SDS011;10810;48.270;9.996;2022-07-18T14:25:52;2.78;;;1.17;;
21301;SDS011;10810;48.270;9.996;2022-07-18T14:28:28;1.80;;;1.45;;
21301;SDS011;10810;48.270;9.996;2022-07-18T14:31:20;2.42;;;1.50;;
21301;SDS011;10810;48.270;9.996;2022-07-18T14:33:47;3.08;;;1.40;;
21301;SDS011;10810;48.270;9.996;2022-07-18T14:36:14;2.30;;;1.40;;
21301;SDS011;10810;48.270;9.996;2022-07-18T14:38:56;4.97;;;1.88;;
21301;SDS011;10810;48.270;9.996;2022-07-18T14:41:25;4.40;;;1.60;;
21301;SDS011;10810;48.270;9.996;2022-07-18T14:43:55;3.00;;;1.52;;
21301;SDS011;10810;48.270;9.996;2022-07-18T14:46:28;2.08;;;1.50;;
21301;SDS011;10810;48.270;9.996;2022-07-18T14:49:18;2.13;;;1.30;;
21301;SDS011;10810;48.270;9.996;2022-07-18T14:51:46;3.30;;;1.55;;
21301;SDS011;10810;48.270;9.996;2022-07-18T14:54:21;2.60;;;1.60;;
21301;SDS011;10810;48.270;9.996;2022-07-18T14:56:48;2.20;;;1.48;;
21301;SDS011;10810;48.270;9.996;2022-07-18T14:59:19;1.70;;;1.30;;
21301;SDS011;10810;48.270;9.996;2022-07-18T15:01:51;2.67;;;1.52;;
21301;SDS011;10810;48.270;9.996;2022-07-18T15:04:32;1.63;;;1.17;;
21301;SDS011;10810;48.270;9.996;2022-07-18T15:07:03;2.03;;;1.38;;
21301;SDS011;10810;48.270;9.996;2022-07-18T15:09:34;4.88;;;1.50;;
21301;SDS011;10810;48.270;9.996;2022-07-18T15:12:03;1.50;;;1.15;;
21301;SDS011;10810;48.270;9.996;2022-07-18T15:14:33;1.77;;;1.35;;
21301;SDS011;10810;48.270;9.996;2022-07-18T15:17:01;1.60;;;1.30;;
21301;SDS011;10810;48.270;9.996;2022-07-18T15:19:37;2.15;;;1.40;;
21301;SDS011;10810;48.270;9.996;2022-07-18T15:22:04;1.83;;;1.33;;
21301;SDS011;10810;48.270;9.996;2022-07-18T15:24:37;1.58;;;1.33;;
21301;SDS011;10810;48.270;9.996;2022-07-18T15:27:15;2.03;;;1.40;;
21301;SDS011;10810;48.270;9.996;2022-07-18T15:29:42;2.08;;;1.50;;
21301;SDS011;10810;48.270;9.996;2022-07-18T15:32:11;2.03;;;1.45;;
21301;SDS011;10810;48.270;9.996;2022-07-18T15:34:40;2.55;;;1.50;;
21301;SDS011;10810;48.270;9.996;2022-07-18T15:37:08;1.88;;;1.52;;
21301;SDS011;10810;48.270;9.996;2022-07-18T15:39:37;2.55;;;1.33;;